sensor_id;sensor_type;location;lat;lon;timestamp;P1;durP1;ratioP1;P2;durP2;ratioP2
51298;SDS011;37382;45.192;9.790;2023-01-10T00:01:40;9.82;;;5.97;;
51298;SDS011;37382;45.192;9.790;2023-01-10T00:04:08;12.85;;;5.93;;
51298;SDS011;37382;45.192;9.790;2023-01-10T00:06:35;12.10;;;6.25;;
51298;SDS011;37382;45.192;9.790;2023-01-10T00:09:03;11.82;;;6.20;;
51298;SDS011;37382;45.192;9.790;2023-01-10T00:11:31;7.80;;;5.97;;
51298;SDS011;37382;45.192;9.790;2023-01-10T00:14:17;10.75;;;6.97;;
51298;SDS011;37382;45.192;9.790;2023-01-10T00:16:45;7.97;;;6.03;;
51298;SDS011;37382;45.192;9.790;2023-01-10T00:19:12;8.48;;;5.80;;
51298;SDS011;37382;45.192;9.790;2023-01-10T00:21:40;7.85;;;6.07;;
51298;SDS011;37382;45.192;9.790;2023-01-10T00:24:09;9.43;;;5.80;;
51298;SDS011;37382;45.192;9.790;2023-01-10T00:26:48;8.18;;;5.30;;
51298;SDS011;37382;45.192;9.790;2023-01-10T00:29:18;8.35;;;5.45;;
51298;SDS011;37382;45.192;9.790;2023-01-10T00:31:51;6.97;;;4.90;;
51298;SDS011;37382;45.192;9.790;2023-01-10T00:34:19;8.90;;;5.28;;
51298;SDS011;37382;45.192;9.790;2023-01-10T00:36:47;9.98;;;5.70;;
51298;SDS011;37382;45.192;9.790;2023-01-10T00:39:15;7.63;;;5.82;;
51298;SDS011;37382;45.192;9.790;2023-01-10T00:41:45;11.18;;;5.35;;
51298;SDS011;37382;45.192;9.790;2023-01-10T00:44:32;7.05;;;5.32;;
51298;SDS011;37382;45.192;9.790;2023-01-10T00:46:59;10.85;;;5.32;;
51298;SDS011;37382;45.192;9.790;2023-01-10T00:49:27;6.40;;;4.40;;
51298;SDS011;37382;45.192;9.790;2023-01-10T00:51:55;4.63;;;3.28;;
51298;SDS011;37382;45.192;9.790;2023-01-10T00:54:24;7.35;;;2.90;;
51298;SDS011;37382;45.192;9.790;2023-01-10T00:56:52;3.33;;;2.63;;
51298;SDS011;37382;45.192;9.790;2023-01-10T00:59:20;3.38;;;2.30;;
51298;SDS011;37382;45.192;9.790;2023-01-10T01:01:47;3.47;;;1.20;;
51298;SDS011;37382;45.192;9.790;2023-01-10T01:04:16;1.63;;;1.30;;
51298;SDS011;37382;45.192;9.790;2023-01-10T01:06:43;2.70;;;1.30;;
51298;SDS011;37382;45.192;9.790;2023-01-10T01:09:12;1.77;;;1.20;;
51298;SDS011;37382;45.192;9.790;2023-01-10T01:11:41;5.07;;;1.50;;
51298;SDS011;37382;45.192;9.790;2023-01-10T01:14:08;1.50;;;1.13;;
51298;SDS011;37382;45.192;9.790;2023-01-10T01:16:36;2.28;;;1.23;;
51298;SDS011;37382;45.192;9.790;2023-01-10T01:19:03;4.00;;;1.30;;
51298;SDS011;37382;45.192;9.790;2023-01-10T01:21:30;2.58;;;1.20;;
51298;SDS011;37382;45.192;9.790;2023-01-10T01:23:58;1.00;;;0.90;;
51298;SDS011;37382;45.192;9.790;2023-01-10T01:26:25;1.77;;;1.17;;
51298;SDS011;37382;45.192;9.790;2023-01-10T01:28:54;3.67;;;1.08;;
51298;SDS011;37382;45.192;9.790;2023-01-10T01:31:22;4.63;;;1.00;;
51298;SDS011;37382;45.192;9.790;2023-01-10T01:33:50;1.23;;;1.13;;
51298;SDS011;37382;45.192;9.790;2023-01-10T01:36:17;3.67;;;1.13;;
51298;SDS011;37382;45.192;9.790;2023-01-10T01:38:46;5.40;;;1.05;;
51298;SDS011;37382;45.192;9.790;2023-01-10T01:41:13;2.25;;;1.15;;
51298;SDS011;37382;45.192;9.790;2023-01-10T01:44:13;1.48;;;0.90;;
51298;SDS011;37382;45.192;9.790;2023-01-10T01:46:55;1.17;;;0.95;;
51298;SDS011;37382;45.192;9.790;2023-01-10T01:49:28;1.48;;;0.90;;
51298;SDS011;37382;45.192;9.790;2023-01-10T01:52:01;1.65;;;1.00;;
51298;SDS011;37382;45.192;9.790;2023-01-10T01:54:34;2.05;;;1.30;;
51298;SDS011;37382;45.192;9.790;2023-01-10T01:57:04;1.20;;;1.05;;
51298;SDS011;37382;45.192;9.790;2023-01-10T01:59:37;2.15;;;1.00;;
51298;SDS011;37382;45.192;9.790;2023-01-10T02:05:08;2.00;;;1.00;;
51298;SDS011;37382;45.192;9.790;2023-01-10T02:07:40;2.05;;;1.15;;
51298;SDS011;37382;45.192;9.790;2023-01-10T02:10:15;2.53;;;1.00;;
51298;SDS011;37382;45.192;9.790;2023-01-10T02:12:46;1.20;;;0.80;;
51298;SDS011;37382;45.192;9.790;2023-01-10T02:15:17;1.80;;;1.00;;
51298;SDS011;37382;45.192;9.790;2023-01-10T02:17:48;1.70;;;0.98;;
51298;SDS011;37382;45.192;9.790;2023-01-10T02:20:18;1.90;;;1.13;;
51298;SDS011;37382;45.192;9.790;2023-01-10T02:31:53;3.65;;;1.15;;
51298;SDS011;37382;45.192;9.790;2023-01-10T02:34:36;2.78;;;1.10;;
51298;SDS011;37382;45.192;9.790;2023-01-10T02:37:23;2.85;;;1.30;;
51298;SDS011;37382;45.192;9.790;2023-01-10T02:42:57;3.90;;;1.05;;
51298;SDS011;37382;45.192;9.790;2023-01-10T02:46:12;2.22;;;0.90;;
51298;SDS011;37382;45.192;9.790;2023-01-10T02:48:25;1.98;;;1.17;;
51298;SDS011;37382;45.192;9.790;2023-01-10T02:53:33;1.58;;;1.20;;
51298;SDS011;37382;45.192;9.790;2023-01-10T03:07:21;1.63;;;1.10;;
51298;SDS011;37382;45.192;9.790;2023-01-10T03:13:25;2.38;;;1.30;;
51298;SDS011;37382;45.192;9.790;2023-01-10T03:15:57;2.78;;;1.30;;
51298;SDS011;37382;45.192;9.790;2023-01-10T03:18:31;2.35;;;1.23;;
51298;SDS011;37382;45.192;9.790;2023-01-10T03:21:02;1.10;;;1.00;;
51298;SDS011;37382;45.192;9.790;2023-01-10T03:23:32;1.40;;;1.20;;
51298;SDS011;37382;45.192;9.790;2023-01-10T03:26:01;4.40;;;1.20;;
51298;SDS011;37382;45.192;9.790;2023-01-10T03:28:37;1.30;;;1.00;;
51298;SDS011;37382;45.192;9.790;2023-01-10T03:31:13;1.80;;;1.00;;
51298;SDS011;37382;45.192;9.790;2023-01-10T03:33:47;2.38;;;1.27;;
51298;SDS011;37382;45.192;9.790;2023-01-10T03:39:01;1.75;;;1.05;;
51298;SDS011;37382;45.192;9.790;2023-01-10T03:41:41;2.33;;;1.00;;
51298;SDS011;37382;45.192;9.790;2023-01-10T03:47:21;1.40;;;1.10;;
51298;SDS011;37382;45.192;9.790;2023-01-10T03:49:58;1.10;;;0.95;;
51298;SDS011;37382;45.192;9.790;2023-01-10T03:52:30;1.52;;;1.00;;
51298;SDS011;37382;45.192;9.790;2023-01-10T03:55:00;3.13;;;1.23;;
51298;SDS011;37382;45.192;9.790;2023-01-10T03:57:29;1.52;;;1.00;;
51298;SDS011;37382;45.192;9.790;2023-01-10T03:59:58;1.77;;;1.02;;
51298;SDS011;37382;45.192;9.790;2023-01-10T04:02:27;2.30;;;1.10;;
51298;SDS011;37382;45.192;9.790;2023-01-10T04:04:57;1.15;;;0.90;;
51298;SDS011;37382;45.192;9.790;2023-01-10T04:07:25;1.55;;;1.00;;
51298;SDS011;37382;45.192;9.790;2023-01-10T04:09:53;1.92;;;1.20;;
51298;SDS011;37382;45.192;9.790;2023-01-10T04:12:20;1.50;;;1.10;;
51298;SDS011;37382;45.192;9.790;2023-01-10T04:14:48;2.13;;;1.20;;
51298;SDS011;37382;45.192;9.790;2023-01-10T04:17:16;1.70;;;1.20;;
51298;SDS011;37382;45.192;9.790;2023-01-10T04:19:44;3.45;;;1.08;;
51298;SDS011;37382;45.192;9.790;2023-01-10T04:22:11;2.17;;;1.17;;
51298;SDS011;37382;45.192;9.790;2023-01-10T04:24:39;5.35;;;3.58;;
51298;SDS011;37382;45.192;9.790;2023-01-10T04:27:06;2.22;;;1.30;;
51298;SDS011;37382;45.192;9.790;2023-01-10T04:29:33;7.38;;;1.10;;
51298;SDS011;37382;45.192;9.790;2023-01-10T04:32:01;3.90;;;1.33;;
51298;SDS011;37382;45.192;9.790;2023-01-10T04:34:28;2.33;;;1.23;;
51298;SDS011;37382;45.192;9.790;2023-01-10T04:36:56;3.25;;;1.35;;
51298;SDS011;37382;45.192;9.790;2023-01-10T04:39:23;1.83;;;1.35;;
51298;SDS011;37382;45.192;9.790;2023-01-10T04:41:51;4.85;;;1.45;;
51298;SDS011;37382;45.192;9.790;2023-01-10T04:44:18;1.67;;;1.30;;
51298;SDS011;37382;45.192;9.790;2023-01-10T04:46:46;3.70;;;1.40;;
51298;SDS011;37382;45.192;9.790;2023-01-10T04:49:13;1.75;;;1.27;;
51298;SDS011;37382;45.192;9.790;2023-01-10T04:51:40;1.65;;;1.15;;
51298;SDS011;37382;45.192;9.790;2023-01-10T04:54:08;4.90;;;1.20;;
51298;SDS011;37382;45.192;9.790;2023-01-10T04:56:35;1.42;;;1.20;;
51298;SDS011;37382;45.192;9.790;2023-01-10T04:59:02;1.85;;;1.17;;
51298;SDS011;37382;45.192;9.790;2023-01-10T05:01:32;2.45;;;1.20;;
51298;SDS011;37382;45.192;9.790;2023-01-10T05:04:01;2.92;;;1.17;;
51298;SDS011;37382;45.192;9.790;2023-01-10T05:06:30;1.52;;;1.00;;
51298;SDS011;37382;45.192;9.790;2023-01-10T05:08:57;1.58;;;1.20;;
51298;SDS011;37382;45.192;9.790;2023-01-10T05:11:26;3.00;;;1.27;;
51298;SDS011;37382;45.192;9.790;2023-01-10T05:13:55;1.42;;;1.10;;
51298;SDS011;37382;45.192;9.790;2023-01-10T05:16:23;3.72;;;1.25;;
51298;SDS011;37382;45.192;9.790;2023-01-10T05:18:51;2.97;;;1.15;;
51298;SDS011;37382;45.192;9.790;2023-01-10T05:21:18;3.25;;;1.10;;
51298;SDS011;37382;45.192;9.790;2023-01-10T05:23:46;1.73;;;1.05;;
51298;SDS011;37382;45.192;9.790;2023-01-10T05:26:14;2.33;;;1.10;;
51298;SDS011;37382;45.192;9.790;2023-01-10T05:28:47;1.23;;;0.85;;
51298;SDS011;37382;45.192;9.790;2023-01-10T05:31:15;1.40;;;1.10;;
51298;SDS011;37382;45.192;9.790;2023-01-10T05:33:48;4.93;;;1.27;;
51298;SDS011;37382;45.192;9.790;2023-01-10T05:36:17;2.35;;;1.17;;
51298;SDS011;37382;45.192;9.790;2023-01-10T05:38:45;1.73;;;1.10;;
51298;SDS011;37382;45.192;9.790;2023-01-10T05:41:12;2.88;;;1.33;;
51298;SDS011;37382;45.192;9.790;2023-01-10T05:43:41;2.28;;;1.30;;
51298;SDS011;37382;45.192;9.790;2023-01-10T05:46:08;2.25;;;1.15;;
51298;SDS011;37382;45.192;9.790;2023-01-10T05:48:36;4.53;;;0.90;;
51298;SDS011;37382;45.192;9.790;2023-01-10T05:51:03;4.43;;;1.02;;
51298;SDS011;37382;45.192;9.790;2023-01-10T05:53:31;3.38;;;1.15;;
51298;SDS011;37382;45.192;9.790;2023-01-10T05:55:59;2.00;;;1.30;;
51298;SDS011;37382;45.192;9.790;2023-01-10T05:58:29;1.38;;;0.90;;
51298;SDS011;37382;45.192;9.790;2023-01-10T06:00:57;1.83;;;1.20;;
51298;SDS011;37382;45.192;9.790;2023-01-10T06:03:25;1.50;;;1.00;;
51298;SDS011;37382;45.192;9.790;2023-01-10T06:05:56;1.60;;;1.08;;
51298;SDS011;37382;45.192;9.790;2023-01-10T06:08:24;3.00;;;1.55;;
51298;SDS011;37382;45.192;9.790;2023-01-10T06:10:51;1.10;;;1.00;;
51298;SDS011;37382;45.192;9.790;2023-01-10T06:13:19;1.48;;;1.00;;
51298;SDS011;37382;45.192;9.790;2023-01-10T06:15:47;1.40;;;1.20;;
51298;SDS011;37382;45.192;9.790;2023-01-10T06:18:15;1.15;;;1.00;;
51298;SDS011;37382;45.192;9.790;2023-01-10T06:20:43;1.23;;;1.00;;
51298;SDS011;37382;45.192;9.790;2023-01-10T06:23:11;5.40;;;1.55;;
51298;SDS011;37382;45.192;9.790;2023-01-10T06:25:38;5.20;;;1.00;;
51298;SDS011;37382;45.192;9.790;2023-01-10T06:28:08;5.10;;;1.10;;
51298;SDS011;37382;45.192;9.790;2023-01-10T06:30:37;1.90;;;1.02;;
51298;SDS011;37382;45.192;9.790;2023-01-10T06:33:08;1.23;;;0.90;;
51298;SDS011;37382;45.192;9.790;2023-01-10T06:35:36;1.63;;;1.10;;
51298;SDS011;37382;45.192;9.790;2023-01-10T06:38:03;2.10;;;1.20;;
51298;SDS011;37382;45.192;9.790;2023-01-10T06:40:31;1.20;;;1.00;;
51298;SDS011;37382;45.192;9.790;2023-01-10T06:42:58;1.30;;;0.85;;
51298;SDS011;37382;45.192;9.790;2023-01-10T06:45:26;3.25;;;0.68;;
51298;SDS011;37382;45.192;9.790;2023-01-10T06:47:54;4.10;;;1.10;;
51298;SDS011;37382;45.192;9.790;2023-01-10T06:50:21;3.95;;;1.80;;
51298;SDS011;37382;45.192;9.790;2023-01-10T06:52:59;21.30;;;6.07;;
51298;SDS011;37382;45.192;9.790;2023-01-10T06:55:28;6.57;;;2.88;;
51298;SDS011;37382;45.192;9.790;2023-01-10T06:58:00;2.88;;;1.42;;
51298;SDS011;37382;45.192;9.790;2023-01-10T07:00:30;3.45;;;2.38;;
51298;SDS011;37382;45.192;9.790;2023-01-10T07:02:58;4.30;;;1.45;;
51298;SDS011;37382;45.192;9.790;2023-01-10T07:05:28;3.10;;;1.67;;
51298;SDS011;37382;45.192;9.790;2023-01-10T07:07:55;1.85;;;1.10;;
51298;SDS011;37382;45.192;9.790;2023-01-10T07:10:24;2.22;;;1.52;;
51298;SDS011;37382;45.192;9.790;2023-01-10T07:12:55;1.75;;;1.40;;
51298;SDS011;37382;45.192;9.790;2023-01-10T07:17:54;1.90;;;1.27;;
51298;SDS011;37382;45.192;9.790;2023-01-10T07:20:23;1.70;;;1.17;;
51298;SDS011;37382;45.192;9.790;2023-01-10T07:22:54;1.13;;;0.80;;
51298;SDS011;37382;45.192;9.790;2023-01-10T07:25:24;1.83;;;1.38;;
51298;SDS011;37382;45.192;9.790;2023-01-10T07:27:52;2.30;;;1.27;;
51298;SDS011;37382;45.192;9.790;2023-01-10T07:30:24;1.25;;;1.05;;
51298;SDS011;37382;45.192;9.790;2023-01-10T07:32:55;6.18;;;1.08;;
51298;SDS011;37382;45.192;9.790;2023-01-10T07:35:23;2.75;;;1.50;;
51298;SDS011;37382;45.192;9.790;2023-01-10T07:37:51;1.73;;;1.20;;
51298;SDS011;37382;45.192;9.790;2023-01-10T07:40:19;1.60;;;1.27;;
51298;SDS011;37382;45.192;9.790;2023-01-10T07:42:46;2.67;;;1.30;;
51298;SDS011;37382;45.192;9.790;2023-01-10T07:45:14;2.28;;;1.40;;
51298;SDS011;37382;45.192;9.790;2023-01-10T07:47:42;1.20;;;1.10;;
51298;SDS011;37382;45.192;9.790;2023-01-10T07:50:09;5.38;;;1.17;;
51298;SDS011;37382;45.192;9.790;2023-01-10T07:52:37;1.13;;;0.80;;
51298;SDS011;37382;45.192;9.790;2023-01-10T07:55:04;2.22;;;1.17;;
51298;SDS011;37382;45.192;9.790;2023-01-10T07:57:33;3.05;;;1.30;;
51298;SDS011;37382;45.192;9.790;2023-01-10T08:00:01;4.20;;;0.98;;
51298;SDS011;37382;45.192;9.790;2023-01-10T08:02:30;1.65;;;1.10;;
51298;SDS011;37382;45.192;9.790;2023-01-10T08:04:58;6.00;;;1.10;;
51298;SDS011;37382;45.192;9.790;2023-01-10T08:07:29;3.33;;;1.00;;
51298;SDS011;37382;45.192;9.790;2023-01-10T08:09:58;4.88;;;0.77;;
51298;SDS011;37382;45.192;9.790;2023-01-10T08:12:25;1.13;;;0.70;;
51298;SDS011;37382;45.192;9.790;2023-01-10T08:14:53;2.05;;;0.90;;
51298;SDS011;37382;45.192;9.790;2023-01-10T08:17:20;2.80;;;0.77;;
51298;SDS011;37382;45.192;9.790;2023-01-10T08:19:49;2.42;;;0.90;;
51298;SDS011;37382;45.192;9.790;2023-01-10T08:22:16;4.68;;;0.90;;
51298;SDS011;37382;45.192;9.790;2023-01-10T08:24:44;1.75;;;1.00;;
51298;SDS011;37382;45.192;9.790;2023-01-10T08:27:11;2.47;;;0.75;;
51298;SDS011;37382;45.192;9.790;2023-01-10T08:29:39;4.32;;;0.73;;
51298;SDS011;37382;45.192;9.790;2023-01-10T08:32:08;3.08;;;1.00;;
51298;SDS011;37382;45.192;9.790;2023-01-10T08:34:35;1.52;;;0.90;;
51298;SDS011;37382;45.192;9.790;2023-01-10T08:37:03;1.63;;;0.80;;
51298;SDS011;37382;45.192;9.790;2023-01-10T08:39:30;2.20;;;0.98;;
51298;SDS011;37382;45.192;9.790;2023-01-10T08:41:58;1.52;;;0.70;;
51298;SDS011;37382;45.192;9.790;2023-01-10T08:44:26;1.45;;;0.85;;
51298;SDS011;37382;45.192;9.790;2023-01-10T08:46:53;6.53;;;0.70;;
51298;SDS011;37382;45.192;9.790;2023-01-10T08:49:21;1.45;;;0.80;;
51298;SDS011;37382;45.192;9.790;2023-01-10T08:51:48;6.53;;;1.30;;
51298;SDS011;37382;45.192;9.790;2023-01-10T08:54:16;1.10;;;0.70;;
51298;SDS011;37382;45.192;9.790;2023-01-10T08:56:43;2.30;;;1.00;;
51298;SDS011;37382;45.192;9.790;2023-01-10T08:59:11;1.25;;;0.80;;
51298;SDS011;37382;45.192;9.790;2023-01-10T09:01:38;1.40;;;0.82;;
51298;SDS011;37382;45.192;9.790;2023-01-10T09:04:06;1.92;;;1.50;;
51298;SDS011;37382;45.192;9.790;2023-01-10T09:06:33;1.40;;;1.00;;
51298;SDS011;37382;45.192;9.790;2023-01-10T09:09:01;1.75;;;1.20;;
51298;SDS011;37382;45.192;9.790;2023-01-10T09:11:29;2.13;;;1.30;;
51298;SDS011;37382;45.192;9.790;2023-01-10T09:13:56;3.35;;;0.80;;
51298;SDS011;37382;45.192;9.790;2023-01-10T09:16:24;2.05;;;1.08;;
51298;SDS011;37382;45.192;9.790;2023-01-10T09:18:52;1.48;;;0.85;;
51298;SDS011;37382;45.192;9.790;2023-01-10T09:21:21;1.73;;;0.63;;
51298;SDS011;37382;45.192;9.790;2023-01-10T09:23:49;1.90;;;0.60;;
51298;SDS011;37382;45.192;9.790;2023-01-10T09:26:16;1.20;;;0.70;;
51298;SDS011;37382;45.192;9.790;2023-01-10T09:28:44;2.50;;;0.60;;
51298;SDS011;37382;45.192;9.790;2023-01-10T09:31:15;2.45;;;0.63;;
51298;SDS011;37382;45.192;9.790;2023-01-10T09:33:43;2.35;;;0.80;;
51298;SDS011;37382;45.192;9.790;2023-01-10T09:36:13;5.05;;;0.70;;
51298;SDS011;37382;45.192;9.790;2023-01-10T09:38:42;2.10;;;0.70;;
51298;SDS011;37382;45.192;9.790;2023-01-10T09:41:19;1.17;;;0.77;;
51298;SDS011;37382;45.192;9.790;2023-01-10T09:44:19;4.32;;;0.93;;
51298;SDS011;37382;45.192;9.790;2023-01-10T09:52:30;0.90;;;0.60;;
51298;SDS011;37382;45.192;9.790;2023-01-10T09:55:22;1.58;;;0.70;;
51298;SDS011;37382;45.192;9.790;2023-01-10T09:57:53;0.77;;;0.75;;
51298;SDS011;37382;45.192;9.790;2023-01-10T10:00:28;3.47;;;0.60;;
51298;SDS011;37382;45.192;9.790;2023-01-10T10:03:03;1.73;;;0.68;;
51298;SDS011;37382;45.192;9.790;2023-01-10T10:05:39;4.32;;;1.00;;
51298;SDS011;37382;45.192;9.790;2023-01-10T10:08:07;4.35;;;1.20;;
51298;SDS011;37382;45.192;9.790;2023-01-10T10:10:46;2.90;;;0.95;;
51298;SDS011;37382;45.192;9.790;2023-01-10T10:19:03;8.50;;;1.00;;
51298;SDS011;37382;45.192;9.790;2023-01-10T10:30:30;1.30;;;0.75;;
51298;SDS011;37382;45.192;9.790;2023-01-10T10:39:13;1.90;;;0.65;;
51298;SDS011;37382;45.192;9.790;2023-01-10T10:41:49;4.82;;;0.90;;
51298;SDS011;37382;45.192;9.790;2023-01-10T10:47:12;2.38;;;0.70;;
51298;SDS011;37382;45.192;9.790;2023-01-10T10:49:43;1.83;;;0.80;;
51298;SDS011;37382;45.192;9.790;2023-01-10T10:52:26;3.25;;;0.70;;
51298;SDS011;37382;45.192;9.790;2023-01-10T10:55:01;4.32;;;0.90;;
51298;SDS011;37382;45.192;9.790;2023-01-10T10:57:32;2.17;;;1.40;;
51298;SDS011;37382;45.192;9.790;2023-01-10T11:00:02;3.17;;;1.38;;
51298;SDS011;37382;45.192;9.790;2023-01-10T11:02:32;2.15;;;1.10;;
51298;SDS011;37382;45.192;9.790;2023-01-10T11:05:13;3.13;;;1.40;;
51298;SDS011;37382;45.192;9.790;2023-01-10T11:07:45;2.33;;;1.15;;
51298;SDS011;37382;45.192;9.790;2023-01-10T11:10:14;4.25;;;1.00;;
51298;SDS011;37382;45.192;9.790;2023-01-10T11:12:47;5.72;;;1.30;;
51298;SDS011;37382;45.192;9.790;2023-01-10T11:18:13;3.70;;;0.70;;
51298;SDS011;37382;45.192;9.790;2023-01-10T11:20:47;4.22;;;0.43;;
51298;SDS011;37382;45.192;9.790;2023-01-10T11:23:28;1.92;;;0.70;;
51298;SDS011;37382;45.192;9.790;2023-01-10T11:26:04;0.77;;;0.30;;
51298;SDS011;37382;45.192;9.790;2023-01-10T11:28:34;6.88;;;1.00;;
51298;SDS011;37382;45.192;9.790;2023-01-10T11:31:02;0.88;;;0.40;;
51298;SDS011;37382;45.192;9.790;2023-01-10T11:33:31;0.75;;;0.55;;
51298;SDS011;37382;45.192;9.790;2023-01-10T11:36:06;3.95;;;0.60;;
51298;SDS011;37382;45.192;9.790;2023-01-10T11:38:39;8.07;;;0.60;;
51298;SDS011;37382;45.192;9.790;2023-01-10T11:43:43;4.43;;;0.40;;
51298;SDS011;37382;45.192;9.790;2023-01-10T11:46:18;0.75;;;0.30;;
51298;SDS011;37382;45.192;9.790;2023-01-10T11:49:07;0.60;;;0.40;;
51298;SDS011;37382;45.192;9.790;2023-01-10T11:51:44;8.25;;;0.30;;
51298;SDS011;37382;45.192;9.790;2023-01-10T11:54:24;1.52;;;0.40;;
51298;SDS011;37382;45.192;9.790;2023-01-10T11:59:21;7.25;;;0.40;;
51298;SDS011;37382;45.192;9.790;2023-01-10T12:04:46;1.50;;;0.30;;
51298;SDS011;37382;45.192;9.790;2023-01-10T12:07:17;0.80;;;0.40;;
51298;SDS011;37382;45.192;9.790;2023-01-10T12:09:55;0.50;;;0.30;;
51298;SDS011;37382;45.192;9.790;2023-01-10T12:12:32;0.38;;;0.30;;
51298;SDS011;37382;45.192;9.790;2023-01-10T12:15:19;0.85;;;0.35;;
51298;SDS011;37382;45.192;9.790;2023-01-10T12:17:49;0.90;;;0.60;;
51298;SDS011;37382;45.192;9.790;2023-01-10T12:20:17;9.32;;;3.15;;
51298;SDS011;37382;45.192;9.790;2023-01-10T12:22:46;7.50;;;4.22;;
51298;SDS011;37382;45.192;9.790;2023-01-10T12:25:37;1.20;;;0.40;;
51298;SDS011;37382;45.192;9.790;2023-01-10T12:28:20;3.97;;;0.70;;
51298;SDS011;37382;45.192;9.790;2023-01-10T12:30:55;0.30;;;0.30;;
51298;SDS011;37382;45.192;9.790;2023-01-10T12:33:26;1.60;;;0.50;;
51298;SDS011;37382;45.192;9.790;2023-01-10T12:36:00;2.35;;;0.40;;
51298;SDS011;37382;45.192;9.790;2023-01-10T12:38:41;2.17;;;0.30;;
51298;SDS011;37382;45.192;9.790;2023-01-10T12:41:58;0.68;;;0.40;;
51298;SDS011;37382;45.192;9.790;2023-01-10T12:44:48;2.20;;;0.20;;
51298;SDS011;37382;45.192;9.790;2023-01-10T12:55:27;3.40;;;0.35;;
51298;SDS011;37382;45.192;9.790;2023-01-10T12:58:00;0.85;;;0.30;;
51298;SDS011;37382;45.192;9.790;2023-01-10T13:00:33;2.00;;;0.60;;
51298;SDS011;37382;45.192;9.790;2023-01-10T13:03:20;0.50;;;0.30;;
51298;SDS011;37382;45.192;9.790;2023-01-10T13:05:51;1.10;;;0.30;;
51298;SDS011;37382;45.192;9.790;2023-01-10T13:08:21;0.70;;;0.57;;
51298;SDS011;37382;45.192;9.790;2023-01-10T13:10:52;0.90;;;0.17;;
51298;SDS011;37382;45.192;9.790;2023-01-10T13:24:59;4.97;;;0.50;;
51298;SDS011;37382;45.192;9.790;2023-01-10T13:27:32;0.45;;;0.25;;
51298;SDS011;37382;45.192;9.790;2023-01-10T13:30:02;1.05;;;0.20;;
51298;SDS011;37382;45.192;9.790;2023-01-10T13:32:34;0.52;;;0.30;;
51298;SDS011;37382;45.192;9.790;2023-01-10T13:35:20;0.32;;;0.22;;
51298;SDS011;37382;45.192;9.790;2023-01-10T13:37:51;4.97;;;0.50;;
51298;SDS011;37382;45.192;9.790;2023-01-10T13:40:23;0.95;;;0.40;;
51298;SDS011;37382;45.192;9.790;2023-01-10T13:51:25;1.75;;;1.30;;
51298;SDS011;37382;45.192;9.790;2023-01-10T13:54:00;3.13;;;0.40;;
51298;SDS011;37382;45.192;9.790;2023-01-10T13:56:48;0.20;;;0.20;;
51298;SDS011;37382;45.192;9.790;2023-01-10T14:05:02;2.05;;;0.25;;
51298;SDS011;37382;45.192;9.790;2023-01-10T14:07:39;1.38;;;0.45;;
51298;SDS011;37382;45.192;9.790;2023-01-10T14:10:25;5.03;;;1.98;;
51298;SDS011;37382;45.192;9.790;2023-01-10T14:12:58;8.90;;;5.90;;
51298;SDS011;37382;45.192;9.790;2023-01-10T14:15:39;1.42;;;0.73;;
51298;SDS011;37382;45.192;9.790;2023-01-10T14:21:26;2.47;;;1.27;;
51298;SDS011;37382;45.192;9.790;2023-01-10T14:23:55;1.10;;;0.73;;
51298;SDS011;37382;45.192;9.790;2023-01-10T14:26:26;2.08;;;1.25;;
51298;SDS011;37382;45.192;9.790;2023-01-10T14:29:04;2.33;;;1.60;;
51298;SDS011;37382;45.192;9.790;2023-01-10T14:31:34;2.38;;;0.95;;
51298;SDS011;37382;45.192;9.790;2023-01-10T14:34:07;0.98;;;0.88;;
51298;SDS011;37382;45.192;9.790;2023-01-10T14:36:48;3.78;;;3.25;;
51298;SDS011;37382;45.192;9.790;2023-01-10T14:39:20;2.30;;;0.60;;
51298;SDS011;37382;45.192;9.790;2023-01-10T14:41:49;3.00;;;2.10;;
51298;SDS011;37382;45.192;9.790;2023-01-10T14:46:58;1.25;;;0.80;;
51298;SDS011;37382;45.192;9.790;2023-01-10T14:49:34;1.20;;;0.95;;
51298;SDS011;37382;45.192;9.790;2023-01-10T14:52:20;1.15;;;0.75;;
51298;SDS011;37382;45.192;9.790;2023-01-10T14:54:54;3.45;;;2.30;;
51298;SDS011;37382;45.192;9.790;2023-01-10T14:57:36;5.47;;;0.90;;
51298;SDS011;37382;45.192;9.790;2023-01-10T15:00:15;1.45;;;0.93;;
51298;SDS011;37382;45.192;9.790;2023-01-10T15:02:45;1.27;;;0.90;;
51298;SDS011;37382;45.192;9.790;2023-01-10T15:07:47;4.15;;;2.00;;
51298;SDS011;37382;45.192;9.790;2023-01-10T15:13:01;2.50;;;1.60;;
51298;SDS011;37382;45.192;9.790;2023-01-10T15:15:40;1.60;;;1.33;;
51298;SDS011;37382;45.192;9.790;2023-01-10T15:18:54;2.42;;;1.50;;
51298;SDS011;37382;45.192;9.790;2023-01-10T15:21:02;1.42;;;0.73;;
51298;SDS011;37382;45.192;9.790;2023-01-10T15:23:34;4.10;;;0.98;;
51298;SDS011;37382;45.192;9.790;2023-01-10T15:26:07;1.52;;;0.80;;
51298;SDS011;37382;45.192;9.790;2023-01-10T15:28:37;1.70;;;0.70;;
51298;SDS011;37382;45.192;9.790;2023-01-10T15:31:05;1.70;;;1.00;;
51298;SDS011;37382;45.192;9.790;2023-01-10T15:33:35;6.05;;;2.03;;
51298;SDS011;37382;45.192;9.790;2023-01-10T15:36:04;3.50;;;1.90;;
51298;SDS011;37382;45.192;9.790;2023-01-10T15:38:37;5.28;;;1.90;;
51298;SDS011;37382;45.192;9.790;2023-01-10T15:41:15;2.78;;;1.45;;
51298;SDS011;37382;45.192;9.790;2023-01-10T15:43:45;6.05;;;3.63;;
51298;SDS011;37382;45.192;9.790;2023-01-10T15:46:17;4.65;;;1.33;;
51298;SDS011;37382;45.192;9.790;2023-01-10T15:48:56;4.53;;;2.40;;
51298;SDS011;37382;45.192;9.790;2023-01-10T15:51:34;2.08;;;1.48;;
51298;SDS011;37382;45.192;9.790;2023-01-10T15:54:27;4.05;;;2.40;;
51298;SDS011;37382;45.192;9.790;2023-01-10T15:57:06;6.53;;;2.78;;
51298;SDS011;37382;45.192;9.790;2023-01-10T15:59:50;3.28;;;1.88;;
51298;SDS011;37382;45.192;9.790;2023-01-10T16:02:29;2.42;;;1.55;;
51298;SDS011;37382;45.192;9.790;2023-01-10T16:05:09;6.28;;;4.93;;
51298;SDS011;37382;45.192;9.790;2023-01-10T16:07:48;12.77;;;8.88;;
51298;SDS011;37382;45.192;9.790;2023-01-10T16:10:17;16.33;;;12.27;;
51298;SDS011;37382;45.192;9.790;2023-01-10T16:12:47;4.35;;;2.85;;
51298;SDS011;37382;45.192;9.790;2023-01-10T16:15:34;3.00;;;1.92;;
51298;SDS011;37382;45.192;9.790;2023-01-10T16:18:06;6.85;;;3.00;;
51298;SDS011;37382;45.192;9.790;2023-01-10T16:20:35;6.25;;;3.30;;
51298;SDS011;37382;45.192;9.790;2023-01-10T16:23:09;4.93;;;3.28;;
51298;SDS011;37382;45.192;9.790;2023-01-10T16:25:45;6.78;;;4.13;;
51298;SDS011;37382;45.192;9.790;2023-01-10T16:28:16;12.50;;;7.72;;
51298;SDS011;37382;45.192;9.790;2023-01-10T16:30:45;6.55;;;5.07;;
51298;SDS011;37382;45.192;9.790;2023-01-10T16:33:15;14.40;;;6.40;;
51298;SDS011;37382;45.192;9.790;2023-01-10T16:35:51;9.70;;;4.70;;
51298;SDS011;37382;45.192;9.790;2023-01-10T16:38:23;19.40;;;8.07;;
51298;SDS011;37382;45.192;9.790;2023-01-10T16:40:56;27.05;;;16.58;;
51298;SDS011;37382;45.192;9.790;2023-01-10T16:43:25;33.30;;;18.58;;
51298;SDS011;37382;45.192;9.790;2023-01-10T16:45:56;7.93;;;3.33;;
51298;SDS011;37382;45.192;9.790;2023-01-10T16:48:28;6.88;;;3.63;;
51298;SDS011;37382;45.192;9.790;2023-01-10T16:53:56;7.18;;;2.60;;
51298;SDS011;37382;45.192;9.790;2023-01-10T16:56:25;12.00;;;2.88;;
51298;SDS011;37382;45.192;9.790;2023-01-10T16:58:54;5.38;;;2.78;;
51298;SDS011;37382;45.192;9.790;2023-01-10T17:01:29;57.50;;;27.55;;
51298;SDS011;37382;45.192;9.790;2023-01-10T17:04:00;50.85;;;21.98;;
51298;SDS011;37382;45.192;9.790;2023-01-10T17:06:31;18.25;;;10.15;;
51298;SDS011;37382;45.192;9.790;2023-01-10T17:08:58;11.13;;;5.00;;
51298;SDS011;37382;45.192;9.790;2023-01-10T17:11:27;4.63;;;3.55;;
51298;SDS011;37382;45.192;9.790;2023-01-10T17:13:57;5.68;;;2.50;;
51298;SDS011;37382;45.192;9.790;2023-01-10T17:16:25;9.88;;;3.17;;
51298;SDS011;37382;45.192;9.790;2023-01-10T17:18:53;6.45;;;2.42;;
51298;SDS011;37382;45.192;9.790;2023-01-10T17:21:21;4.28;;;1.88;;
51298;SDS011;37382;45.192;9.790;2023-01-10T17:23:49;2.75;;;1.70;;